Hogestown, Pennsylvania
Current Conditions -  °F | °C
As of 6:56 PM on Friday 28 Nov 2014 (Local Time) from KCXY Reporting Station
Clear Clear  
Wind Chill: 22°   Ceiling: Unl
Heat Index: 28°   Visibility: 10mi
Dew Point: 16°   Wind: 6mph
Humidity: 61%   Direction: 240°WSW
Pressure: 30.28"   Gusts: NA
Location:  40.2485°N, 77.0142°W
Report Text: KCXY 282356Z 24005KT 10SM CLR M02/M09 A3028 RMK AO2 SLP258 T10221089 10022 21028 53011
Loading
Personal Weather Stations






























Interactive Weather Map New forecast layout! Learn more

10-Day Weather Forecast

Advertisements
Track Severe Weather on mobile